sensor_id;sensor_type;location;lat;lon;timestamp;temperature;humidity
68354;DHT22;55274;43.060;25.618;2024-01-15T00:00:41;-5.20;99.90
68354;DHT22;55274;43.060;25.618;2024-01-15T00:03:07;-5.30;99.90
68354;DHT22;55274;43.060;25.618;2024-01-15T00:05:33;-5.30;99.90
68354;DHT22;55274;43.060;25.618;2024-01-15T00:07:58;-5.30;99.90
68354;DHT22;55274;43.060;25.618;2024-01-15T00:10:24;-5.30;99.90
68354;DHT22;55274;43.060;25.618;2024-01-15T00:12:50;-5.30;99.90
68354;DHT22;55274;43.060;25.618;2024-01-15T00:15:16;-5.30;99.90
68354;DHT22;55274;43.060;25.618;2024-01-15T00:17:41;-5.40;99.90
68354;DHT22;55274;43.060;25.618;2024-01-15T00:20:07;-5.40;99.90
68354;DHT22;55274;43.060;25.618;2024-01-15T00:22:34;-5.40;99.90
68354;DHT22;55274;43.060;25.618;2024-01-15T00:25:02;-5.40;99.90
68354;DHT22;55274;43.060;25.618;2024-01-15T00:27:27;-5.40;99.90
68354;DHT22;55274;43.060;25.618;2024-01-15T00:29:53;-5.50;99.90
68354;DHT22;55274;43.060;25.618;2024-01-15T00:32:20;-5.40;99.90
68354;DHT22;55274;43.060;25.618;2024-01-15T00:34:46;-5.40;99.90
68354;DHT22;55274;43.060;25.618;2024-01-15T00:37:12;-5.40;99.90
68354;DHT22;55274;43.060;25.618;2024-01-15T00:39:38;-5.40;99.90
68354;DHT22;55274;43.060;25.618;2024-01-15T00:42:04;-5.50;99.90
68354;DHT22;55274;43.060;25.618;2024-01-15T00:44:30;-5.50;99.90
68354;DHT22;55274;43.060;25.618;2024-01-15T00:46:56;-5.50;99.90
68354;DHT22;55274;43.060;25.618;2024-01-15T00:49:21;-5.40;99.90
68354;DHT22;55274;43.060;25.618;2024-01-15T00:51:47;-5.50;99.90
68354;DHT22;55274;43.060;25.618;2024-01-15T00:54:13;-5.50;99.90
68354;DHT22;55274;43.060;25.618;2024-01-15T00:56:39;-5.50;99.90
68354;DHT22;55274;43.060;25.618;2024-01-15T00:59:05;-5.60;99.90
68354;DHT22;55274;43.060;25.618;2024-01-15T01:01:31;-5.60;99.90
68354;DHT22;55274;43.060;25.618;2024-01-15T01:03:56;-5.60;99.90
68354;DHT22;55274;43.060;25.618;2024-01-15T01:06:22;-5.60;99.90
68354;DHT22;55274;43.060;25.618;2024-01-15T01:08:48;-5.70;99.90
68354;DHT22;55274;43.060;25.618;2024-01-15T01:11:15;-5.70;99.90
68354;DHT22;55274;43.060;25.618;2024-01-15T01:13:41;-5.60;99.90
68354;DHT22;55274;43.060;25.618;2024-01-15T01:16:07;-5.60;99.90
68354;DHT22;55274;43.060;25.618;2024-01-15T01:18:34;-5.60;99.90
68354;DHT22;55274;43.060;25.618;2024-01-15T01:21:00;-5.60;99.90
68354;DHT22;55274;43.060;25.618;2024-01-15T01:23:26;-5.70;99.90
68354;DHT22;55274;43.060;25.618;2024-01-15T01:25:52;-5.70;99.90
68354;DHT22;55274;43.060;25.618;2024-01-15T01:28:17;-5.70;99.90
68354;DHT22;55274;43.060;25.618;2024-01-15T01:30:43;-5.80;99.90
68354;DHT22;55274;43.060;25.618;2024-01-15T01:33:09;-5.80;99.90
68354;DHT22;55274;43.060;25.618;2024-01-15T01:35:35;-5.80;99.90
68354;DHT22;55274;43.060;25.618;2024-01-15T01:38:01;-5.80;99.90
68354;DHT22;55274;43.060;25.618;2024-01-15T01:40:27;-5.80;99.90
68354;DHT22;55274;43.060;25.618;2024-01-15T01:42:53;-5.80;99.90
68354;DHT22;55274;43.060;25.618;2024-01-15T01:45:18;-5.80;99.90
68354;DHT22;55274;43.060;25.618;2024-01-15T01:47:44;-5.90;99.90
68354;DHT22;55274;43.060;25.618;2024-01-15T01:50:10;-5.90;99.90
68354;DHT22;55274;43.060;25.618;2024-01-15T01:52:37;-6.00;99.90
68354;DHT22;55274;43.060;25.618;2024-01-15T01:55:04;-5.70;99.90
68354;DHT22;55274;43.060;25.618;2024-01-15T01:57:31;-6.00;99.90
68354;DHT22;55274;43.060;25.618;2024-01-15T01:59:58;-6.00;99.90
68354;DHT22;55274;43.060;25.618;2024-01-15T02:02:24;-6.10;99.90
68354;DHT22;55274;43.060;25.618;2024-01-15T02:04:50;-6.10;99.90
68354;DHT22;55274;43.060;25.618;2024-01-15T02:07:16;-6.10;99.90
68354;DHT22;55274;43.060;25.618;2024-01-15T02:09:44;-6.10;99.90
68354;DHT22;55274;43.060;25.618;2024-01-15T02:12:10;-6.10;99.90
68354;DHT22;55274;43.060;25.618;2024-01-15T02:14:36;-6.00;99.90
68354;DHT22;55274;43.060;25.618;2024-01-15T02:17:02;-5.70;99.90
68354;DHT22;55274;43.060;25.618;2024-01-15T02:19:28;-6.10;99.90
68354;DHT22;55274;43.060;25.618;2024-01-15T02:21:54;-6.20;99.90
68354;DHT22;55274;43.060;25.618;2024-01-15T02:24:20;-6.20;99.90
68354;DHT22;55274;43.060;25.618;2024-01-15T02:26:46;-6.10;99.90
68354;DHT22;55274;43.060;25.618;2024-01-15T02:29:12;-5.90;99.90
68354;DHT22;55274;43.060;25.618;2024-01-15T02:31:39;-5.80;99.90
68354;DHT22;55274;43.060;25.618;2024-01-15T02:34:05;-6.10;99.90
68354;DHT22;55274;43.060;25.618;2024-01-15T02:36:31;-6.10;99.90
68354;DHT22;55274;43.060;25.618;2024-01-15T02:38:57;-6.10;99.90
68354;DHT22;55274;43.060;25.618;2024-01-15T02:41:22;-6.10;99.90
68354;DHT22;55274;43.060;25.618;2024-01-15T02:43:48;-6.10;99.90
68354;DHT22;55274;43.060;25.618;2024-01-15T02:46:14;-6.10;99.90
68354;DHT22;55274;43.060;25.618;2024-01-15T02:48:41;-6.10;99.90
68354;DHT22;55274;43.060;25.618;2024-01-15T02:51:07;-5.80;99.90
68354;DHT22;55274;43.060;25.618;2024-01-15T02:53:33;-6.10;99.90
68354;DHT22;55274;43.060;25.618;2024-01-15T02:55:59;-6.10;99.90
68354;DHT22;55274;43.060;25.618;2024-01-15T02:58:25;-6.10;99.90
68354;DHT22;55274;43.060;25.618;2024-01-15T03:00:51;-6.00;99.90
68354;DHT22;55274;43.060;25.618;2024-01-15T03:03:16;-6.20;99.90
68354;DHT22;55274;43.060;25.618;2024-01-15T03:05:42;-5.80;99.90
68354;DHT22;55274;43.060;25.618;2024-01-15T03:08:08;-5.80;99.90
68354;DHT22;55274;43.060;25.618;2024-01-15T03:10:34;-6.20;99.90
68354;DHT22;55274;43.060;25.618;2024-01-15T03:12:59;-6.30;99.90
68354;DHT22;55274;43.060;25.618;2024-01-15T03:15:25;-6.30;99.90
68354;DHT22;55274;43.060;25.618;2024-01-15T03:17:51;-6.30;99.90
68354;DHT22;55274;43.060;25.618;2024-01-15T03:20:17;-6.30;99.90
68354;DHT22;55274;43.060;25.618;2024-01-15T03:22:42;-6.30;99.90
68354;DHT22;55274;43.060;25.618;2024-01-15T03:25:08;-6.40;99.90
68354;DHT22;55274;43.060;25.618;2024-01-15T03:27:34;-6.30;99.90
68354;DHT22;55274;43.060;25.618;2024-01-15T03:30:00;-6.30;99.90
68354;DHT22;55274;43.060;25.618;2024-01-15T03:32:27;-6.40;99.90
68354;DHT22;55274;43.060;25.618;2024-01-15T03:34:53;-6.20;99.90
68354;DHT22;55274;43.060;25.618;2024-01-15T03:37:19;-6.10;99.90
68354;DHT22;55274;43.060;25.618;2024-01-15T03:39:45;-6.40;99.90
68354;DHT22;55274;43.060;25.618;2024-01-15T03:42:11;-6.30;99.90
68354;DHT22;55274;43.060;25.618;2024-01-15T03:44:37;-6.40;99.90
68354;DHT22;55274;43.060;25.618;2024-01-15T03:47:03;-6.40;99.90
68354;DHT22;55274;43.060;25.618;2024-01-15T03:49:28;-6.40;99.90
68354;DHT22;55274;43.060;25.618;2024-01-15T03:51:54;-6.40;99.90
68354;DHT22;55274;43.060;25.618;2024-01-15T03:54:20;-6.40;99.90
68354;DHT22;55274;43.060;25.618;2024-01-15T03:56:46;-6.40;99.90
68354;DHT22;55274;43.060;25.618;2024-01-15T03:59:11;-6.20;99.90
68354;DHT22;55274;43.060;25.618;2024-01-15T04:01:37;-6.20;99.90
68354;DHT22;55274;43.060;25.618;2024-01-15T04:04:03;-6.50;99.90
68354;DHT22;55274;43.060;25.618;2024-01-15T04:06:29;-6.50;99.90
68354;DHT22;55274;43.060;25.618;2024-01-15T04:08:55;-6.50;99.90
68354;DHT22;55274;43.060;25.618;2024-01-15T04:11:20;-6.50;99.90
68354;DHT22;55274;43.060;25.618;2024-01-15T04:13:47;-6.50;99.90
68354;DHT22;55274;43.060;25.618;2024-01-15T04:16:13;-6.50;99.90
68354;DHT22;55274;43.060;25.618;2024-01-15T04:18:39;-6.50;99.90
68354;DHT22;55274;43.060;25.618;2024-01-15T04:21:05;-6.50;99.90
68354;DHT22;55274;43.060;25.618;2024-01-15T04:23:32;-6.50;99.90
68354;DHT22;55274;43.060;25.618;2024-01-15T04:25:58;-6.50;99.90
68354;DHT22;55274;43.060;25.618;2024-01-15T04:28:24;-6.50;99.90
68354;DHT22;55274;43.060;25.618;2024-01-15T04:30:50;-6.40;99.90
68354;DHT22;55274;43.060;25.618;2024-01-15T04:33:15;-6.50;99.90
68354;DHT22;55274;43.060;25.618;2024-01-15T04:35:41;-6.30;99.90
68354;DHT22;55274;43.060;25.618;2024-01-15T04:38:07;-6.50;99.90
68354;DHT22;55274;43.060;25.618;2024-01-15T04:40:33;-6.40;99.90
68354;DHT22;55274;43.060;25.618;2024-01-15T04:42:59;-6.50;99.90
68354;DHT22;55274;43.060;25.618;2024-01-15T04:45:24;-6.50;99.90
68354;DHT22;55274;43.060;25.618;2024-01-15T04:47:54;-6.50;99.90
68354;DHT22;55274;43.060;25.618;2024-01-15T04:50:21;-6.30;99.90
68354;DHT22;55274;43.060;25.618;2024-01-15T04:52:47;-6.60;99.90
68354;DHT22;55274;43.060;25.618;2024-01-15T04:55:13;-6.60;99.90
68354;DHT22;55274;43.060;25.618;2024-01-15T04:57:39;-6.70;99.90
68354;DHT22;55274;43.060;25.618;2024-01-15T05:00:05;-6.70;99.90
68354;DHT22;55274;43.060;25.618;2024-01-15T05:02:31;-6.60;99.90
68354;DHT22;55274;43.060;25.618;2024-01-15T05:04:57;-6.60;99.90
68354;DHT22;55274;43.060;25.618;2024-01-15T05:07:23;-6.10;99.90
68354;DHT22;55274;43.060;25.618;2024-01-15T05:09:49;-6.70;99.90
68354;DHT22;55274;43.060;25.618;2024-01-15T05:12:14;-6.70;99.90
68354;DHT22;55274;43.060;25.618;2024-01-15T05:14:40;-6.60;99.90
68354;DHT22;55274;43.060;25.618;2024-01-15T05:17:06;-6.60;99.90
68354;DHT22;55274;43.060;25.618;2024-01-15T05:19:32;-6.50;99.90
68354;DHT22;55274;43.060;25.618;2024-01-15T05:21:57;-6.50;99.90
68354;DHT22;55274;43.060;25.618;2024-01-15T05:24:23;-6.30;99.90
68354;DHT22;55274;43.060;25.618;2024-01-15T05:26:49;-6.30;99.90
68354;DHT22;55274;43.060;25.618;2024-01-15T05:29:15;-6.50;99.90
68354;DHT22;55274;43.060;25.618;2024-01-15T05:31:40;-6.50;99.90
68354;DHT22;55274;43.060;25.618;2024-01-15T05:34:06;-6.40;99.90
68354;DHT22;55274;43.060;25.618;2024-01-15T05:36:32;-6.50;99.90
68354;DHT22;55274;43.060;25.618;2024-01-15T05:39:00;-6.40;99.90
68354;DHT22;55274;43.060;25.618;2024-01-15T05:41:26;-6.60;99.90
68354;DHT22;55274;43.060;25.618;2024-01-15T05:43:52;-6.40;99.90
68354;DHT22;55274;43.060;25.618;2024-01-15T05:46:18;-6.50;99.90
68354;DHT22;55274;43.060;25.618;2024-01-15T05:48:43;-6.50;99.90
68354;DHT22;55274;43.060;25.618;2024-01-15T05:51:10;-6.50;99.90
68354;DHT22;55274;43.060;25.618;2024-01-15T05:53:35;-6.50;99.90
68354;DHT22;55274;43.060;25.618;2024-01-15T05:56:01;-6.50;99.90
68354;DHT22;55274;43.060;25.618;2024-01-15T05:58:27;-6.30;99.90
68354;DHT22;55274;43.060;25.618;2024-01-15T06:00:53;-6.30;99.90
68354;DHT22;55274;43.060;25.618;2024-01-15T06:03:18;-6.40;99.90
68354;DHT22;55274;43.060;25.618;2024-01-15T06:05:44;-6.40;99.90
68354;DHT22;55274;43.060;25.618;2024-01-15T06:08:10;-6.50;99.90
68354;DHT22;55274;43.060;25.618;2024-01-15T06:10:36;-6.40;99.90
68354;DHT22;55274;43.060;25.618;2024-01-15T06:13:01;-6.40;99.90
68354;DHT22;55274;43.060;25.618;2024-01-15T06:15:27;-6.30;99.90
68354;DHT22;55274;43.060;25.618;2024-01-15T06:17:53;-6.30;99.90
68354;DHT22;55274;43.060;25.618;2024-01-15T06:20:19;-5.90;99.90
68354;DHT22;55274;43.060;25.618;2024-01-15T06:22:45;-6.30;99.90
68354;DHT22;55274;43.060;25.618;2024-01-15T06:25:10;-6.20;99.90
68354;DHT22;55274;43.060;25.618;2024-01-15T06:27:36;-6.10;99.90
68354;DHT22;55274;43.060;25.618;2024-01-15T06:30:02;-6.10;99.90
68354;DHT22;55274;43.060;25.618;2024-01-15T06:32:28;-6.00;99.90
68354;DHT22;55274;43.060;25.618;2024-01-15T06:34:54;-6.00;99.90
68354;DHT22;55274;43.060;25.618;2024-01-15T06:37:20;-5.90;99.90
68354;DHT22;55274;43.060;25.618;2024-01-15T06:39:46;-5.80;99.90
68354;DHT22;55274;43.060;25.618;2024-01-15T06:42:11;-5.60;99.90
68354;DHT22;55274;43.060;25.618;2024-01-15T06:44:37;-5.50;99.90
68354;DHT22;55274;43.060;25.618;2024-01-15T06:47:05;-5.40;99.90
68354;DHT22;55274;43.060;25.618;2024-01-15T06:49:31;-5.40;99.90
68354;DHT22;55274;43.060;25.618;2024-01-15T06:51:57;-5.20;99.90
68354;DHT22;55274;43.060;25.618;2024-01-15T06:54:22;-5.10;99.90
68354;DHT22;55274;43.060;25.618;2024-01-15T06:56:49;-4.80;99.90
68354;DHT22;55274;43.060;25.618;2024-01-15T06:59:15;-4.50;99.90
68354;DHT22;55274;43.060;25.618;2024-01-15T07:01:41;-4.10;99.90
68354;DHT22;55274;43.060;25.618;2024-01-15T07:04:10;-4.00;99.90
68354;DHT22;55274;43.060;25.618;2024-01-15T07:06:36;-3.70;99.90
68354;DHT22;55274;43.060;25.618;2024-01-15T07:09:04;-3.20;99.90
68354;DHT22;55274;43.060;25.618;2024-01-15T07:11:33;-2.80;99.90
68354;DHT22;55274;43.060;25.618;2024-01-15T07:13:59;-2.40;99.90
68354;DHT22;55274;43.060;25.618;2024-01-15T07:16:25;-1.90;99.90
68354;DHT22;55274;43.060;25.618;2024-01-15T07:18:50;-1.60;99.90
68354;DHT22;55274;43.060;25.618;2024-01-15T07:21:16;-1.20;99.90
68354;DHT22;55274;43.060;25.618;2024-01-15T07:23:42;-0.60;99.90
68354;DHT22;55274;43.060;25.618;2024-01-15T07:26:10;-0.20;99.90
68354;DHT22;55274;43.060;25.618;2024-01-15T07:28:36;0.00;99.90
68354;DHT22;55274;43.060;25.618;2024-01-15T07:31:03;0.20;99.90
68354;DHT22;55274;43.060;25.618;2024-01-15T07:33:29;0.30;99.90
68354;DHT22;55274;43.060;25.618;2024-01-15T07:35:55;0.50;99.90
68354;DHT22;55274;43.060;25.618;2024-01-15T07:38:20;0.90;99.30
68354;DHT22;55274;43.060;25.618;2024-01-15T07:40:47;1.00;99.30
68354;DHT22;55274;43.060;25.618;2024-01-15T07:43:15;1.20;98.10
68354;DHT22;55274;43.060;25.618;2024-01-15T07:45:41;1.50;97.80
68354;DHT22;55274;43.060;25.618;2024-01-15T07:48:06;1.60;96.20
68354;DHT22;55274;43.060;25.618;2024-01-15T07:50:32;1.90;96.90
68354;DHT22;55274;43.060;25.618;2024-01-15T07:52:58;2.20;96.00
68354;DHT22;55274;43.060;25.618;2024-01-15T07:55:24;2.40;93.30
68354;DHT22;55274;43.060;25.618;2024-01-15T07:57:49;2.50;94.30
68354;DHT22;55274;43.060;25.618;2024-01-15T08:00:17;2.60;92.50
68354;DHT22;55274;43.060;25.618;2024-01-15T08:02:43;2.90;92.90
68354;DHT22;55274;43.060;25.618;2024-01-15T08:05:09;3.00;94.30
68354;DHT22;55274;43.060;25.618;2024-01-15T08:07:34;3.10;93.10
68354;DHT22;55274;43.060;25.618;2024-01-15T08:10:00;3.20;92.20
68354;DHT22;55274;43.060;25.618;2024-01-15T08:12:26;3.30;91.50
68354;DHT22;55274;43.060;25.618;2024-01-15T08:14:52;3.10;91.80
68354;DHT22;55274;43.060;25.618;2024-01-15T08:17:18;3.00;91.00
68354;DHT22;55274;43.060;25.618;2024-01-15T08:19:44;2.70;92.20
68354;DHT22;55274;43.060;25.618;2024-01-15T08:22:09;2.60;93.60
68354;DHT22;55274;43.060;25.618;2024-01-15T08:24:35;2.60;94.30
68354;DHT22;55274;43.060;25.618;2024-01-15T08:27:01;2.60;92.90
68354;DHT22;55274;43.060;25.618;2024-01-15T08:29:27;2.60;91.60
68354;DHT22;55274;43.060;25.618;2024-01-15T08:31:53;2.60;92.10
68354;DHT22;55274;43.060;25.618;2024-01-15T08:34:19;2.80;93.00
68354;DHT22;55274;43.060;25.618;2024-01-15T08:36:44;3.00;92.00
68354;DHT22;55274;43.060;25.618;2024-01-15T08:39:10;3.10;91.20
68354;DHT22;55274;43.060;25.618;2024-01-15T08:41:36;3.40;90.90
68354;DHT22;55274;43.060;25.618;2024-01-15T08:44:02;3.40;89.00
68354;DHT22;55274;43.060;25.618;2024-01-15T08:46:28;3.50;90.90
68354;DHT22;55274;43.060;25.618;2024-01-15T08:48:54;3.70;91.20
68354;DHT22;55274;43.060;25.618;2024-01-15T08:51:20;3.80;90.70
68354;DHT22;55274;43.060;25.618;2024-01-15T08:53:46;3.90;91.20
68354;DHT22;55274;43.060;25.618;2024-01-15T08:56:11;4.10;89.40
68354;DHT22;55274;43.060;25.618;2024-01-15T08:58:37;4.40;89.10
68354;DHT22;55274;43.060;25.618;2024-01-15T09:01:03;4.70;89.40
68354;DHT22;55274;43.060;25.618;2024-01-15T09:03:29;5.00;88.40
68354;DHT22;55274;43.060;25.618;2024-01-15T09:05:55;5.30;87.20
68354;DHT22;55274;43.060;25.618;2024-01-15T09:08:21;5.40;87.60
68354;DHT22;55274;43.060;25.618;2024-01-15T09:10:47;5.50;87.20
68354;DHT22;55274;43.060;25.618;2024-01-15T09:13:13;5.60;87.90
68354;DHT22;55274;43.060;25.618;2024-01-15T09:15:38;5.70;85.60
68354;DHT22;55274;43.060;25.618;2024-01-15T09:18:04;5.80;86.30
68354;DHT22;55274;43.060;25.618;2024-01-15T09:20:30;5.70;86.20
68354;DHT22;55274;43.060;25.618;2024-01-15T09:22:56;5.60;87.40
68354;DHT22;55274;43.060;25.618;2024-01-15T09:25:22;5.50;84.30
68354;DHT22;55274;43.060;25.618;2024-01-15T09:27:48;5.40;82.90
68354;DHT22;55274;43.060;25.618;2024-01-15T09:30:14;5.30;84.80
68354;DHT22;55274;43.060;25.618;2024-01-15T09:32:40;5.30;87.40
68354;DHT22;55274;43.060;25.618;2024-01-15T09:35:06;5.30;88.50
68354;DHT22;55274;43.060;25.618;2024-01-15T09:37:32;5.20;90.30
68354;DHT22;55274;43.060;25.618;2024-01-15T09:39:58;5.30;90.60
68354;DHT22;55274;43.060;25.618;2024-01-15T09:42:24;5.40;90.70
68354;DHT22;55274;43.060;25.618;2024-01-15T09:44:51;5.40;91.00
68354;DHT22;55274;43.060;25.618;2024-01-15T09:47:19;5.40;92.70
68354;DHT22;55274;43.060;25.618;2024-01-15T09:49:47;5.40;93.60
68354;DHT22;55274;43.060;25.618;2024-01-15T09:52:14;5.40;92.80
68354;DHT22;55274;43.060;25.618;2024-01-15T09:54:43;5.40;92.40
68354;DHT22;55274;43.060;25.618;2024-01-15T09:57:09;5.40;91.30
68354;DHT22;55274;43.060;25.618;2024-01-15T09:59:37;5.50;92.50
68354;DHT22;55274;43.060;25.618;2024-01-15T10:02:05;5.40;93.90
68354;DHT22;55274;43.060;25.618;2024-01-15T10:04:31;5.40;93.20
68354;DHT22;55274;43.060;25.618;2024-01-15T10:06:58;5.40;92.00
68354;DHT22;55274;43.060;25.618;2024-01-15T10:09:25;5.30;92.80
68354;DHT22;55274;43.060;25.618;2024-01-15T10:11:51;5.30;94.10
68354;DHT22;55274;43.060;25.618;2024-01-15T10:14:17;5.30;95.70
68354;DHT22;55274;43.060;25.618;2024-01-15T10:16:43;5.30;94.20
68354;DHT22;55274;43.060;25.618;2024-01-15T10:19:09;5.40;94.60
68354;DHT22;55274;43.060;25.618;2024-01-15T10:21:35;5.50;95.20
68354;DHT22;55274;43.060;25.618;2024-01-15T10:24:02;5.50;94.30
68354;DHT22;55274;43.060;25.618;2024-01-15T10:26:28;5.50;94.90
68354;DHT22;55274;43.060;25.618;2024-01-15T10:28:54;5.50;95.70
68354;DHT22;55274;43.060;25.618;2024-01-15T10:31:20;5.50;95.90
68354;DHT22;55274;43.060;25.618;2024-01-15T10:33:50;5.60;95.10
68354;DHT22;55274;43.060;25.618;2024-01-15T10:39:03;5.60;95.50
68354;DHT22;55274;43.060;25.618;2024-01-15T10:41:28;5.70;96.30
68354;DHT22;55274;43.060;25.618;2024-01-15T10:43:54;5.80;96.50
68354;DHT22;55274;43.060;25.618;2024-01-15T10:46:20;5.90;96.20
68354;DHT22;55274;43.060;25.618;2024-01-15T10:48:46;6.00;96.80
68354;DHT22;55274;43.060;25.618;2024-01-15T10:51:12;6.00;96.50
68354;DHT22;55274;43.060;25.618;2024-01-15T10:53:42;6.10;95.40
68354;DHT22;55274;43.060;25.618;2024-01-15T10:56:10;6.10;95.60
68354;DHT22;55274;43.060;25.618;2024-01-15T10:58:39;6.20;94.20
68354;DHT22;55274;43.060;25.618;2024-01-15T11:01:05;6.20;94.10
68354;DHT22;55274;43.060;25.618;2024-01-15T11:03:32;6.30;93.60
68354;DHT22;55274;43.060;25.618;2024-01-15T11:05:59;6.50;94.30
68354;DHT22;55274;43.060;25.618;2024-01-15T11:08:25;6.70;94.10
68354;DHT22;55274;43.060;25.618;2024-01-15T11:10:52;6.80;93.40
68354;DHT22;55274;43.060;25.618;2024-01-15T11:13:22;7.00;90.80
68354;DHT22;55274;43.060;25.618;2024-01-15T11:16:06;7.30;86.50
68354;DHT22;55274;43.060;25.618;2024-01-15T11:18:40;7.50;90.20
68354;DHT22;55274;43.060;25.618;2024-01-15T11:26:36;8.80;71.60
68354;DHT22;55274;43.060;25.618;2024-01-15T11:29:07;9.20;66.10
68354;DHT22;55274;43.060;25.618;2024-01-15T11:34:09;9.50;64.80
68354;DHT22;55274;43.060;25.618;2024-01-15T11:39:39;9.90;62.60
68354;DHT22;55274;43.060;25.618;2024-01-15T11:42:05;10.20;59.80
68354;DHT22;55274;43.060;25.618;2024-01-15T11:44:31;10.30;59.60
68354;DHT22;55274;43.060;25.618;2024-01-15T11:52:17;10.60;57.90
68354;DHT22;55274;43.060;25.618;2024-01-15T11:54:52;10.70;57.20
68354;DHT22;55274;43.060;25.618;2024-01-15T11:57:51;10.80;55.80
68354;DHT22;55274;43.060;25.618;2024-01-15T12:00:18;10.80;58.80
68354;DHT22;55274;43.060;25.618;2024-01-15T12:02:45;10.90;56.40
68354;DHT22;55274;43.060;25.618;2024-01-15T12:05:13;10.90;55.60
68354;DHT22;55274;43.060;25.618;2024-01-15T12:07:40;11.00;54.50
68354;DHT22;55274;43.060;25.618;2024-01-15T12:10:09;11.00;55.20
68354;DHT22;55274;43.060;25.618;2024-01-15T12:13:05;11.00;55.80
68354;DHT22;55274;43.060;25.618;2024-01-15T12:15:31;11.00;56.20
68354;DHT22;55274;43.060;25.618;2024-01-15T12:17:59;11.10;54.80
68354;DHT22;55274;43.060;25.618;2024-01-15T12:20:25;11.10;54.50
68354;DHT22;55274;43.060;25.618;2024-01-15T12:22:51;11.10;55.70
68354;DHT22;55274;43.060;25.618;2024-01-15T12:25:17;11.00;54.80
68354;DHT22;55274;43.060;25.618;2024-01-15T12:27:43;10.80;54.90
68354;DHT22;55274;43.060;25.618;2024-01-15T12:30:13;10.70;54.90
68354;DHT22;55274;43.060;25.618;2024-01-15T12:32:41;10.50;55.70
68354;DHT22;55274;43.060;25.618;2024-01-15T12:35:08;10.40;56.90
68354;DHT22;55274;43.060;25.618;2024-01-15T12:37:38;10.20;58.70
68354;DHT22;55274;43.060;25.618;2024-01-15T12:40:05;10.10;58.00
68354;DHT22;55274;43.060;25.618;2024-01-15T12:42:42;10.00;56.50
68354;DHT22;55274;43.060;25.618;2024-01-15T12:45:10;10.10;56.20
68354;DHT22;55274;43.060;25.618;2024-01-15T12:47:37;10.00;58.80
68354;DHT22;55274;43.060;25.618;2024-01-15T12:50:09;9.90;58.10
68354;DHT22;55274;43.060;25.618;2024-01-15T12:52:36;9.80;57.10
68354;DHT22;55274;43.060;25.618;2024-01-15T12:55:07;9.70;58.90
68354;DHT22;55274;43.060;25.618;2024-01-15T12:57:35;9.60;58.70
68354;DHT22;55274;43.060;25.618;2024-01-15T13:00:01;9.30;64.70
68354;DHT22;55274;43.060;25.618;2024-01-15T13:02:27;9.20;63.40
68354;DHT22;55274;43.060;25.618;2024-01-15T13:04:53;9.10;64.50
68354;DHT22;55274;43.060;25.618;2024-01-15T13:07:19;8.90;64.10
68354;DHT22;55274;43.060;25.618;2024-01-15T13:09:45;8.80;65.70
68354;DHT22;55274;43.060;25.618;2024-01-15T13:12:11;8.80;68.80
68354;DHT22;55274;43.060;25.618;2024-01-15T13:14:37;8.60;69.30
68354;DHT22;55274;43.060;25.618;2024-01-15T13:17:03;8.60;65.00
68354;DHT22;55274;43.060;25.618;2024-01-15T13:19:29;8.70;62.00
68354;DHT22;55274;43.060;25.618;2024-01-15T13:21:55;8.70;66.90
68354;DHT22;55274;43.060;25.618;2024-01-15T13:24:24;8.40;69.60
68354;DHT22;55274;43.060;25.618;2024-01-15T13:26:50;8.50;63.70
68354;DHT22;55274;43.060;25.618;2024-01-15T13:29:15;9.00;60.10
68354;DHT22;55274;43.060;25.618;2024-01-15T13:31:41;9.10;60.70
68354;DHT22;55274;43.060;25.618;2024-01-15T13:34:07;9.40;59.30
68354;DHT22;55274;43.060;25.618;2024-01-15T13:36:34;9.40;61.20
68354;DHT22;55274;43.060;25.618;2024-01-15T13:39:00;9.40;58.50
68354;DHT22;55274;43.060;25.618;2024-01-15T13:41:26;9.60;58.10
68354;DHT22;55274;43.060;25.618;2024-01-15T13:43:55;9.60;57.60
68354;DHT22;55274;43.060;25.618;2024-01-15T13:46:25;9.70;57.20
68354;DHT22;55274;43.060;25.618;2024-01-15T13:48:53;9.80;56.60
68354;DHT22;55274;43.060;25.618;2024-01-15T13:51:22;9.70;59.60
68354;DHT22;55274;43.060;25.618;2024-01-15T13:53:49;9.40;62.80
68354;DHT22;55274;43.060;25.618;2024-01-15T13:56:15;9.30;60.00
68354;DHT22;55274;43.060;25.618;2024-01-15T13:58:41;9.50;58.70
68354;DHT22;55274;43.060;25.618;2024-01-15T14:01:08;9.60;58.00
68354;DHT22;55274;43.060;25.618;2024-01-15T14:03:34;9.80;56.90
68354;DHT22;55274;43.060;25.618;2024-01-15T14:06:00;9.60;58.80
68354;DHT22;55274;43.060;25.618;2024-01-15T14:08:28;9.50;58.70
68354;DHT22;55274;43.060;25.618;2024-01-15T14:10:54;9.50;58.10
68354;DHT22;55274;43.060;25.618;2024-01-15T14:13:22;9.50;58.00
68354;DHT22;55274;43.060;25.618;2024-01-15T14:15:48;9.50;58.00
68354;DHT22;55274;43.060;25.618;2024-01-15T14:18:16;9.50;57.90
68354;DHT22;55274;43.060;25.618;2024-01-15T14:20:42;9.40;58.20
68354;DHT22;55274;43.060;25.618;2024-01-15T14:23:09;9.20;59.30
68354;DHT22;55274;43.060;25.618;2024-01-15T14:25:35;9.10;59.60
68354;DHT22;55274;43.060;25.618;2024-01-15T14:28:01;9.00;59.10
68354;DHT22;55274;43.060;25.618;2024-01-15T14:30:26;9.00;58.90
68354;DHT22;55274;43.060;25.618;2024-01-15T14:32:52;8.90;59.60
68354;DHT22;55274;43.060;25.618;2024-01-15T14:35:18;8.90;59.30
68354;DHT22;55274;43.060;25.618;2024-01-15T14:37:44;8.90;59.20
68354;DHT22;55274;43.060;25.618;2024-01-15T14:40:11;8.80;59.20
68354;DHT22;55274;43.060;25.618;2024-01-15T14:42:37;8.60;59.80
68354;DHT22;55274;43.060;25.618;2024-01-15T14:45:04;8.60;60.00
68354;DHT22;55274;43.060;25.618;2024-01-15T14:47:40;8.50;60.00
68354;DHT22;55274;43.060;25.618;2024-01-15T14:50:07;8.50;59.50
68354;DHT22;55274;43.060;25.618;2024-01-15T14:52:33;8.50;60.20
68354;DHT22;55274;43.060;25.618;2024-01-15T14:55:00;8.40;61.50
68354;DHT22;55274;43.060;25.618;2024-01-15T14:57:25;8.40;59.70
68354;DHT22;55274;43.060;25.618;2024-01-15T14:59:51;8.40;59.80
68354;DHT22;55274;43.060;25.618;2024-01-15T15:02:17;8.30;60.00
68354;DHT22;55274;43.060;25.618;2024-01-15T15:04:43;8.10;63.40
68354;DHT22;55274;43.060;25.618;2024-01-15T15:07:09;7.70;67.50
68354;DHT22;55274;43.060;25.618;2024-01-15T15:09:36;7.50;66.30
68354;DHT22;55274;43.060;25.618;2024-01-15T15:12:04;7.50;66.60
68354;DHT22;55274;43.060;25.618;2024-01-15T15:14:31;7.30;68.80
68354;DHT22;55274;43.060;25.618;2024-01-15T15:16:57;7.20;66.40
68354;DHT22;55274;43.060;25.618;2024-01-15T15:19:23;7.30;65.30
68354;DHT22;55274;43.060;25.618;2024-01-15T15:21:49;7.40;65.20
68354;DHT22;55274;43.060;25.618;2024-01-15T15:24:15;7.30;65.70
68354;DHT22;55274;43.060;25.618;2024-01-15T15:26:44;7.40;64.00
68354;DHT22;55274;43.060;25.618;2024-01-15T15:29:09;7.70;62.80
68354;DHT22;55274;43.060;25.618;2024-01-15T15:31:35;8.00;61.90
68354;DHT22;55274;43.060;25.618;2024-01-15T15:34:01;7.90;62.30
68354;DHT22;55274;43.060;25.618;2024-01-15T15:36:28;7.80;62.80